Main page


Airports :


Jersey Airport

latitude: 49-13N, longitude: 002-12W, elevation: 84 m

Current weather observation

The report was made 13 minutes ago, at 17:20 UTC
Wind 13 kt from the North/Northeast, varying between North and East/Northeast
Temperature 6°C
Humidity 61%
Pressure 1030 hPa
Visibility 10 km or more
Few clouds at a height of 900 ft
Broken clouds at a height of 3400 ft

METAR: EGJJ 201720Z 03013KT 360V070 9999 FEW009 BKN034 06/M01 Q1030

Time: 17:33 (17:33 UTC)


The report was made 3 hours and 30 minutes ago, at 14:03 UTC
Forecast valid from 20 at 15 UTC to 20 at 24 UTC
Wind 14 kt from the North/Northeast
Visibility 10 km or more
Few clouds at a height of 1500 ft
Broken clouds at a height of 2500 ft

TAF: EGJJ 201403Z 2015/2024 02014KT 9999 FEW015 BKN025

Weather observations and forecasts of more than 4000 airports (METAR and TAF reports).

The available stations are represented by yellow and red dots on the map.

Hover mouse over dot to see the name of the station.

Then click to see weather observations and forecasts.

To change the map : click on the green buttons with a black cross to zoom in, on the green button with a dash to zoom out, or on the green arrows for adjacent maps.